createdAt,value
2023-02-13T00:00:12.603Z,2.55
2023-02-13T00:03:14.564Z,2.17
2023-02-13T00:06:16.845Z,2.00
2023-02-13T00:09:18.569Z,1.75
2023-02-13T00:12:21.617Z,2.33
2023-02-13T00:15:23.301Z,2.20
2023-02-13T00:18:26.272Z,2.63
2023-02-13T00:21:28.208Z,2.28
2023-02-13T00:24:29.876Z,2.50
2023-02-13T00:27:33.911Z,2.30
2023-02-13T00:30:36.779Z,2.10
2023-02-13T00:33:39.077Z,1.88
2023-02-13T00:36:40.733Z,2.55
2023-02-13T00:39:42.441Z,2.53
2023-02-13T00:42:46.431Z,1.90
2023-02-13T00:45:48.117Z,1.98
2023-02-13T00:48:49.859Z,1.13
2023-02-13T00:51:51.608Z,1.83
2023-02-13T00:54:53.311Z,1.92
2023-02-13T00:57:56.350Z,1.60
2023-02-13T01:00:58.426Z,1.58
2023-02-13T01:04:00.343Z,2.22
2023-02-13T01:07:02.687Z,1.85
2023-02-13T01:10:04.977Z,1.88
2023-02-13T01:13:08.818Z,2.10
2023-02-13T01:16:11.071Z,1.58
2023-02-13T01:19:12.860Z,1.90
2023-02-13T01:22:14.623Z,2.05
2023-02-13T01:25:16.719Z,1.75
2023-02-13T01:28:19.788Z,1.88
2023-02-13T01:31:21.612Z,1.67
2023-02-13T01:34:25.328Z,2.10
2023-02-13T01:37:27.034Z,2.15
2023-02-13T01:40:30.097Z,2.40
2023-02-13T01:43:51.195Z,2.00
2023-02-13T01:46:54.747Z,2.08
2023-02-13T01:50:06.950Z,1.83
2023-02-13T01:53:12.534Z,1.48
2023-02-13T01:56:18.602Z,2.30
2023-02-13T01:59:27.025Z,1.70
2023-02-13T02:02:31.522Z,1.95
2023-02-13T02:05:36.615Z,2.35
2023-02-13T02:08:39.096Z,2.33
2023-02-13T02:11:50.257Z,2.08
2023-02-13T02:14:57.785Z,2.03
2023-02-13T02:17:59.638Z,3.13
2023-02-13T02:21:58.508Z,1.63
2023-02-13T02:25:26.243Z,1.50
2023-02-13T02:28:52.279Z,1.33
2023-02-13T02:32:16.235Z,1.83
2023-02-13T02:35:27.407Z,2.67
2023-02-13T02:38:45.571Z,1.67
2023-02-13T02:42:07.725Z,1.98
2023-02-13T02:45:26.443Z,1.88
2023-02-13T02:48:52.438Z,2.03
2023-02-13T02:52:06.326Z,1.80
2023-02-13T02:55:18.979Z,2.53
2023-02-13T02:58:51.941Z,2.90
2023-02-13T03:02:15.173Z,2.15
2023-02-13T03:05:41.151Z,1.65
2023-02-13T03:09:05.093Z,2.10
2023-02-13T03:12:27.857Z,2.80
2023-02-13T03:15:30.149Z,1.92
2023-02-13T03:18:53.786Z,2.13
2023-02-13T03:22:19.736Z,2.22
2023-02-13T03:25:37.290Z,1.80
2023-02-13T03:29:05.770Z,1.55
2023-02-13T03:32:18.073Z,2.08
2023-02-13T03:35:49.666Z,2.70
2023-02-13T03:38:59.383Z,1.80
2023-02-13T03:42:05.374Z,2.15
2023-02-13T03:45:31.369Z,1.80
2023-02-13T03:48:55.927Z,1.65
2023-02-13T03:52:02.898Z,1.98
2023-02-13T03:55:28.668Z,1.75
2023-02-13T03:58:53.584Z,2.85
2023-02-13T04:02:02.617Z,1.58
2023-02-13T04:05:08.717Z,1.92
2023-02-13T04:08:11.020Z,1.67
2023-02-13T04:11:18.844Z,1.95
2023-02-13T04:14:24.062Z,1.65
2023-02-13T04:17:36.041Z,1.92
2023-02-13T04:20:38.901Z,1.30
2023-02-13T04:23:40.605Z,1.30
2023-02-13T04:26:45.447Z,1.48
2023-02-13T04:29:47.064Z,2.47
2023-02-13T04:32:49.020Z,1.85
2023-02-13T04:35:50.874Z,1.70
2023-02-13T04:38:52.686Z,1.48
2023-02-13T04:41:55.782Z,1.88
2023-02-13T04:44:57.515Z,2.08
2023-02-13T04:47:59.193Z,2.38
2023-02-13T04:51:00.913Z,2.05
2023-02-13T04:54:02.780Z,1.75
2023-02-13T04:57:05.822Z,1.73
2023-02-13T05:00:09.002Z,2.30
2023-02-13T05:03:12.354Z,1.83
2023-02-13T05:06:14.488Z,1.75
2023-02-13T05:09:16.151Z,2.40
2023-02-13T05:12:19.112Z,1.85
2023-02-13T05:15:22.607Z,2.10
2023-02-13T05:18:24.330Z,1.33
2023-02-13T05:21:44.884Z,1.38
2023-02-13T05:24:46.531Z,1.23
2023-02-13T05:27:50.355Z,1.95
2023-02-13T05:30:52.173Z,2.17
2023-02-13T05:33:53.905Z,2.30
2023-02-13T05:36:55.908Z,1.45
2023-02-13T05:39:57.634Z,1.55
2023-02-13T05:43:01.621Z,2.17
2023-02-13T05:46:04.586Z,1.65
2023-02-13T05:49:06.875Z,2.42
2023-02-13T05:52:08.594Z,3.30
2023-02-13T05:55:10.327Z,2.10
2023-02-13T05:58:13.419Z,2.90
2023-02-13T06:01:15.175Z,2.25
2023-02-13T06:04:16.899Z,2.05
2023-02-13T06:07:18.674Z,2.00
2023-02-13T06:10:20.305Z,2.95
2023-02-13T06:13:23.410Z,3.13
2023-02-13T06:16:25.434Z,2.42
2023-02-13T06:19:27.382Z,2.40
2023-02-13T06:22:29.117Z,1.77
2023-02-13T06:25:30.875Z,2.03
2023-02-13T06:28:34.266Z,1.58
2023-02-13T06:31:36.222Z,2.83
2023-02-13T06:34:37.934Z,3.10
2023-02-13T06:37:39.753Z,2.17
2023-02-13T06:40:41.430Z,3.38
2023-02-13T06:43:44.592Z,2.50
2023-02-13T06:46:46.292Z,2.47
2023-02-13T06:49:47.982Z,1.65
2023-02-13T06:52:51.812Z,2.20
2023-02-13T06:55:54.319Z,2.22
2023-02-13T06:58:57.401Z,1.85
2023-02-13T07:01:59.139Z,2.10
2023-02-13T07:05:01.469Z,1.98
2023-02-13T07:08:03.314Z,3.08
2023-02-13T07:11:05.231Z,2.33
2023-02-13T07:14:09.060Z,2.35
2023-02-13T07:17:11.213Z,3.55
2023-02-13T07:20:13.487Z,2.45
2023-02-13T07:23:15.245Z,2.65
2023-02-13T07:26:17.135Z,2.70
2023-02-13T07:29:20.279Z,2.92
2023-02-13T07:32:21.959Z,2.05
2023-02-13T07:35:24.922Z,2.88
2023-02-13T07:38:26.574Z,2.40
2023-02-13T07:41:28.222Z,2.78
2023-02-13T07:44:32.022Z,2.90
2023-02-13T07:47:33.933Z,3.38
2023-02-13T07:50:35.697Z,3.95
2023-02-13T07:53:37.518Z,3.00
2023-02-13T07:56:39.323Z,2.90
2023-02-13T07:59:42.520Z,3.65
2023-02-13T08:02:44.416Z,3.42
2023-02-13T08:05:48.253Z,3.65
2023-02-13T08:09:09.959Z,3.67
2023-02-13T08:12:11.837Z,3.60
2023-02-13T08:15:15.831Z,3.78
2023-02-13T08:18:18.991Z,3.30
2023-02-13T08:21:21.759Z,3.50
2023-02-13T08:24:23.824Z,3.30
2023-02-13T08:27:25.701Z,2.78
2023-02-13T08:30:29.909Z,2.92
2023-02-13T08:33:31.658Z,2.38
2023-02-13T08:36:33.480Z,2.67
2023-02-13T08:39:35.349Z,3.20
2023-02-13T08:42:37.245Z,3.20
2023-02-13T08:45:40.574Z,3.13
2023-02-13T08:48:42.386Z,3.38
2023-02-13T08:51:44.344Z,3.00
2023-02-13T08:54:46.041Z,2.75
2023-02-13T08:57:48.112Z,2.88
2023-02-13T09:00:51.301Z,3.53
2023-02-13T09:03:53.363Z,1.48
2023-02-13T09:06:56.054Z,2.65
2023-02-13T09:09:57.859Z,2.78
2023-02-13T09:13:01.520Z,3.17
2023-02-13T09:16:06.683Z,2.88
2023-02-13T09:19:08.574Z,2.42
2023-02-13T09:22:10.338Z,2.30
2023-02-13T09:25:12.136Z,3.15
2023-02-13T09:28:13.903Z,2.55
2023-02-13T09:31:19.557Z,3.20
2023-02-13T09:34:21.498Z,3.25
2023-02-13T09:37:23.398Z,2.60
2023-02-13T09:43:55.744Z,2.50
2023-02-13T09:47:00.912Z,2.65
2023-02-13T09:53:05.116Z,3.85
2023-02-13T09:56:14.638Z,3.67
2023-02-13T09:59:33.598Z,3.50
2023-02-13T10:02:47.608Z,4.07
2023-02-13T10:06:00.166Z,3.80
2023-02-13T10:09:13.002Z,4.70
2023-02-13T10:12:26.271Z,3.45
2023-02-13T10:15:34.247Z,3.08
2023-02-13T10:18:45.274Z,4.20
2023-02-13T10:21:52.980Z,3.63
2023-02-13T10:25:00.465Z,4.22
2023-02-13T10:28:10.318Z,3.90
2023-02-13T10:31:15.971Z,4.00
2023-02-13T10:34:22.454Z,3.42
2023-02-13T10:37:24.160Z,3.20
2023-02-13T10:40:31.984Z,3.40
2023-02-13T10:43:44.572Z,3.00
2023-02-13T10:46:55.980Z,3.60
2023-02-13T10:50:20.471Z,3.17
2023-02-13T10:53:33.882Z,3.42
2023-02-13T10:56:43.835Z,4.05
2023-02-13T10:59:56.747Z,3.88
2023-02-13T11:02:59.743Z,3.88
2023-02-13T11:06:09.083Z,3.63
2023-02-13T11:09:13.385Z,4.38
2023-02-13T11:12:27.009Z,2.63
2023-02-13T11:15:30.406Z,3.42
2023-02-13T11:18:34.653Z,3.00
2023-02-13T11:21:38.580Z,2.90
2023-02-13T11:24:42.100Z,3.28
2023-02-13T11:27:45.135Z,2.97
2023-02-13T11:30:48.922Z,3.85
2023-02-13T11:33:51.265Z,3.75
2023-02-13T11:37:14.045Z,3.97
2023-02-13T11:40:30.638Z,3.95
2023-02-13T11:43:36.843Z,3.42
2023-02-13T11:46:46.208Z,3.42
2023-02-13T11:49:48.031Z,3.30
2023-02-13T11:52:57.303Z,3.33
2023-02-13T11:56:06.007Z,2.97
2023-02-13T11:59:13.916Z,2.58
2023-02-13T12:02:19.283Z,3.38
2023-02-13T12:05:23.830Z,3.05
2023-02-13T12:08:27.720Z,2.95
2023-02-13T12:11:38.742Z,3.15
2023-02-13T12:14:45.291Z,2.80
2023-02-13T12:17:52.253Z,4.05
2023-02-13T12:21:00.004Z,3.22
2023-02-13T12:24:11.944Z,3.05
2023-02-13T12:27:23.949Z,3.50
2023-02-13T12:30:41.779Z,2.85
2023-02-13T12:34:11.368Z,3.08
2023-02-13T12:37:21.866Z,3.20
2023-02-13T12:40:39.446Z,3.05
2023-02-13T12:44:03.204Z,3.15
2023-02-13T12:47:15.544Z,3.38
2023-02-13T12:50:32.226Z,2.75
2023-02-13T12:54:01.742Z,2.85
2023-02-13T12:57:19.864Z,2.97
2023-02-13T13:00:35.603Z,2.80
2023-02-13T13:03:50.347Z,2.97
2023-02-13T13:07:19.358Z,2.95
2023-02-13T13:10:39.568Z,3.05
2023-02-13T13:13:53.931Z,3.03
2023-02-13T13:17:03.933Z,2.80
2023-02-13T13:20:29.668Z,3.13
2023-02-13T13:23:34.894Z,2.90
2023-02-13T13:26:40.916Z,2.80
2023-02-13T13:29:48.881Z,2.83
2023-02-13T13:32:56.612Z,2.72
2023-02-13T13:36:05.380Z,2.63
2023-02-13T13:39:20.014Z,3.30
2023-02-13T13:42:32.725Z,3.00
2023-02-13T13:45:47.587Z,2.47
2023-02-13T13:49:06.160Z,3.08
2023-02-13T13:52:21.005Z,3.20
2023-02-13T13:55:56.414Z,3.05
2023-02-13T13:58:58.841Z,3.47
2023-02-13T14:02:42.802Z,3.42
2023-02-13T14:06:00.823Z,3.65
2023-02-13T14:09:22.792Z,3.35
2023-02-13T14:12:38.187Z,3.20
2023-02-13T14:15:52.253Z,3.10
2023-02-13T14:18:54.046Z,3.20
2023-02-13T14:22:28.002Z,3.33
2023-02-13T14:25:32.280Z,3.13
2023-02-13T14:28:34.152Z,2.38
2023-02-13T14:31:39.467Z,3.30
2023-02-13T14:34:42.334Z,3.03
2023-02-13T14:37:52.307Z,3.40
2023-02-13T14:40:54.699Z,3.10
2023-02-13T14:43:56.562Z,3.22
2023-02-13T14:47:01.729Z,3.08
2023-02-13T14:50:05.767Z,2.92
2023-02-13T14:53:16.892Z,3.10
2023-02-13T14:56:22.690Z,3.13
2023-02-13T14:59:29.026Z,3.20
2023-02-13T15:02:35.553Z,2.90
2023-02-13T15:05:37.559Z,2.95
2023-02-13T15:08:47.031Z,2.75
2023-02-13T15:11:49.267Z,2.67
2023-02-13T15:14:51.434Z,3.08
2023-02-13T15:17:57.601Z,2.60
2023-02-13T15:21:01.331Z,2.70
2023-02-13T15:24:05.014Z,2.83
2023-02-13T15:27:16.472Z,2.92
2023-02-13T15:30:21.506Z,2.65
2023-02-13T15:33:25.533Z,3.30
2023-02-13T15:36:35.144Z,2.13
2023-02-13T15:39:38.243Z,2.70
2023-02-13T15:42:39.969Z,2.83
2023-02-13T15:45:43.928Z,2.92
2023-02-13T15:48:47.116Z,3.00
2023-02-13T15:51:50.228Z,2.63
2023-02-13T15:54:55.423Z,2.97
2023-02-13T15:57:59.211Z,2.60
2023-02-13T16:01:04.311Z,2.60
2023-02-13T16:04:09.822Z,2.70
2023-02-13T16:07:13.562Z,3.20
2023-02-13T16:10:17.733Z,2.95
2023-02-13T16:13:21.451Z,3.10
2023-02-13T16:16:24.087Z,2.80
2023-02-13T16:19:32.864Z,3.58
2023-02-13T16:22:37.827Z,2.90
2023-02-13T16:25:41.469Z,3.35
2023-02-13T16:28:46.476Z,3.30
2023-02-13T16:31:50.335Z,3.38
2023-02-13T16:34:54.280Z,3.75
2023-02-13T16:37:58.711Z,3.78
2023-02-13T16:41:05.911Z,3.90
2023-02-13T16:44:22.059Z,3.63
2023-02-13T16:47:24.884Z,4.38
2023-02-13T16:50:26.627Z,4.47
2023-02-13T16:53:28.614Z,5.85
2023-02-13T16:56:40.448Z,5.95
2023-02-13T16:59:52.823Z,4.05
2023-02-13T17:02:54.962Z,3.63
2023-02-13T17:06:01.141Z,5.00
2023-02-13T17:09:02.957Z,4.55
2023-02-13T17:12:13.354Z,4.40
2023-02-13T17:15:17.610Z,3.78
2023-02-13T17:18:19.251Z,4.35
2023-02-13T17:21:21.001Z,4.57
2023-02-13T17:24:22.850Z,6.15
2023-02-13T17:27:26.352Z,5.82
2023-02-13T17:30:31.935Z,5.22
2023-02-13T17:33:38.273Z,5.25
2023-02-13T17:36:40.093Z,4.60
2023-02-13T17:39:42.185Z,5.22
2023-02-13T17:42:47.080Z,5.53
2023-02-13T17:45:49.731Z,4.70
2023-02-13T17:48:51.678Z,4.85
2023-02-13T17:51:53.890Z,4.22
2023-02-13T17:54:55.702Z,3.45
2023-02-13T17:57:59.498Z,4.45
2023-02-13T18:01:02.026Z,4.07
2023-02-13T18:04:04.327Z,5.25
2023-02-13T18:07:06.275Z,4.70
2023-02-13T18:10:12.975Z,4.35
2023-02-13T18:13:16.462Z,4.63
2023-02-13T18:16:18.383Z,5.03
2023-02-13T18:19:20.276Z,4.93
2023-02-13T18:22:24.023Z,4.95
2023-02-13T18:25:25.794Z,4.78
2023-02-13T18:28:29.818Z,4.60
2023-02-13T18:31:31.670Z,5.63
2023-02-13T18:34:33.712Z,5.97
2023-02-13T18:37:35.926Z,8.02
2023-02-13T18:40:37.861Z,9.52
2023-02-13T18:43:41.180Z,7.60
2023-02-13T18:46:43.174Z,8.60
2023-02-13T18:49:48.141Z,8.95
2023-02-13T18:52:50.468Z,6.78
2023-02-13T18:55:59.556Z,5.40
2023-02-13T18:59:02.708Z,5.03
2023-02-13T19:02:05.445Z,4.45
2023-02-13T19:05:08.725Z,4.30
2023-02-13T19:08:10.684Z,3.75
2023-02-13T19:11:17.009Z,2.30
2023-02-13T19:14:20.593Z,2.05
2023-02-13T19:17:22.370Z,2.22
2023-02-13T19:20:24.548Z,2.83
2023-02-13T19:23:26.614Z,3.38
2023-02-13T19:26:28.381Z,3.15
2023-02-13T19:29:31.493Z,3.60
2023-02-13T19:32:33.492Z,3.55
2023-02-13T19:35:35.255Z,3.78
2023-02-13T19:38:37.653Z,3.08
2023-02-13T19:41:40.626Z,2.72
2023-02-13T19:44:43.808Z,2.03
2023-02-13T19:47:45.721Z,2.60
2023-02-13T19:50:47.472Z,2.53
2023-02-13T19:53:49.256Z,2.47
2023-02-13T19:56:51.304Z,2.42
2023-02-13T19:59:54.564Z,2.13
2023-02-13T20:03:00.619Z,2.22
2023-02-13T20:06:04.767Z,2.05
2023-02-13T20:09:08.766Z,2.30
2023-02-13T20:12:10.534Z,1.42
2023-02-13T20:15:13.562Z,1.90
2023-02-13T20:18:17.229Z,2.25
2023-02-13T20:21:19.608Z,1.85
2023-02-13T20:24:21.689Z,2.33
2023-02-13T20:27:23.686Z,2.83
2023-02-13T20:30:27.830Z,2.00
2023-02-13T20:33:29.634Z,1.98
2023-02-13T20:36:31.780Z,2.63
2023-02-13T20:39:33.436Z,2.17
2023-02-13T20:42:35.620Z,2.17
2023-02-13T20:45:39.031Z,1.55
2023-02-13T20:48:41.259Z,2.25
2023-02-13T20:51:43.051Z,2.58
2023-02-13T20:54:45.169Z,2.47
2023-02-13T20:57:46.963Z,2.65
2023-02-13T21:00:50.311Z,2.92
2023-02-13T21:03:54.629Z,2.42
2023-02-13T21:06:56.352Z,3.05
2023-02-13T21:09:57.989Z,2.03
2023-02-13T21:12:59.745Z,1.98
2023-02-13T21:16:08.590Z,1.90
2023-02-13T21:19:14.566Z,1.73
2023-02-13T21:22:16.297Z,2.05
2023-02-13T21:25:18.709Z,1.17
2023-02-13T21:28:20.983Z,1.95
2023-02-13T21:31:27.881Z,2.45
2023-02-13T21:34:29.856Z,1.90
2023-02-13T21:37:31.696Z,2.03
2023-02-13T21:40:33.360Z,1.83
2023-02-13T21:43:38.100Z,2.28
2023-02-13T21:46:42.312Z,2.33
2023-02-13T21:49:44.140Z,2.42
2023-02-13T21:52:46.446Z,2.13
2023-02-13T21:55:48.531Z,2.45
2023-02-13T21:58:50.339Z,3.00
2023-02-13T22:01:54.589Z,2.00
2023-02-13T22:04:56.405Z,2.17
2023-02-13T22:08:10.288Z,2.13
2023-02-13T22:11:12.193Z,2.90
2023-02-13T22:14:17.105Z,2.60
2023-02-13T22:19:34.627Z,2.70
2023-02-13T22:22:36.414Z,2.65
2023-02-13T22:25:38.164Z,2.67
2023-02-13T22:28:39.837Z,4.88
2023-02-13T22:31:42.255Z,3.35
2023-02-13T22:34:45.437Z,3.20
2023-02-13T22:37:47.119Z,3.05
2023-02-13T22:40:48.853Z,2.30
2023-02-13T22:43:51.340Z,3.33
2023-02-13T22:46:53.888Z,2.70
2023-02-13T22:49:57.102Z,3.10
2023-02-13T22:52:59.386Z,2.80
2023-02-13T22:56:01.860Z,3.33
2023-02-13T22:59:03.783Z,3.47
2023-02-13T23:02:06.113Z,3.05
2023-02-13T23:05:09.402Z,3.22
2023-02-13T23:08:11.905Z,2.65
2023-02-13T23:11:34.166Z,2.70
2023-02-13T23:14:35.812Z,3.25
2023-02-13T23:17:56.373Z,2.80
2023-02-13T23:21:05.152Z,2.58
2023-02-13T23:24:07.346Z,3.40
2023-02-13T23:27:09.072Z,3.00
2023-02-13T23:30:14.392Z,3.33
2023-02-13T23:33:16.256Z,3.40
2023-02-13T23:36:19.286Z,3.05
2023-02-13T23:39:21.402Z,2.83
2023-02-13T23:42:23.208Z,2.78
2023-02-13T23:45:25.030Z,1.80
2023-02-13T23:48:26.810Z,2.20
2023-02-13T23:51:30.241Z,2.28
2023-02-13T23:54:32.091Z,2.63
2023-02-13T23:57:33.802Z,2.80
